createdAt,value
2023-03-22T00:00:15.472Z,64.23
2023-03-22T00:02:49.150Z,68.33
2023-03-22T00:05:17.883Z,66.47
2023-03-22T00:07:46.536Z,63.70
2023-03-22T00:10:15.107Z,63.33
2023-03-22T00:12:43.815Z,63.27
2023-03-22T00:15:13.099Z,60.23
2023-03-22T00:17:42.246Z,60.40
2023-03-22T00:20:13.693Z,62.63
2023-03-22T00:22:42.258Z,60.93
2023-03-22T00:25:11.634Z,64.17
2023-03-22T00:27:40.300Z,65.97
2023-03-22T00:30:10.706Z,66.03
2023-03-22T00:32:39.936Z,62.43
2023-03-22T00:35:09.455Z,67.90
2023-03-22T00:37:40.328Z,64.00
2023-03-22T00:40:12.606Z,61.57
2023-03-22T00:42:42.758Z,63.57
2023-03-22T00:45:13.450Z,67.43
2023-03-22T00:47:42.165Z,68.80
2023-03-22T00:50:11.846Z,65.87
2023-03-22T00:52:41.818Z,64.70
2023-03-22T00:55:10.879Z,65.60
2023-03-22T00:57:39.508Z,67.30
2023-03-22T01:00:16.171Z,69.00
2023-03-22T01:02:45.138Z,65.20
2023-03-22T01:05:16.245Z,70.17
2023-03-22T01:07:46.394Z,67.20
2023-03-22T01:10:15.093Z,67.43
2023-03-22T01:12:43.718Z,65.37
2023-03-22T01:15:12.951Z,66.80
2023-03-22T01:17:41.807Z,65.30
2023-03-22T01:20:11.876Z,68.07
2023-03-22T01:22:40.384Z,69.33
2023-03-22T01:25:11.329Z,68.17
2023-03-22T01:27:39.799Z,70.33
2023-03-22T01:30:10.020Z,66.80
2023-03-22T01:32:39.767Z,67.53
2023-03-22T01:35:09.030Z,66.13
2023-03-22T01:37:37.713Z,67.27
2023-03-22T01:40:07.530Z,64.03
2023-03-22T01:42:37.785Z,66.07
2023-03-22T01:45:38.080Z,62.37
2023-03-22T01:48:30.037Z,62.47
2023-03-22T01:51:05.037Z,60.83
2023-03-22T01:53:36.200Z,62.37
2023-03-22T01:56:05.517Z,61.77
2023-03-22T01:58:37.707Z,62.20
2023-03-22T02:01:07.899Z,64.87
2023-03-22T02:03:42.723Z,63.33
2023-03-22T02:06:11.363Z,61.60
2023-03-22T02:08:41.378Z,65.60
2023-03-22T02:11:16.045Z,65.60
2023-03-22T02:14:03.889Z,67.47
2023-03-22T02:16:41.389Z,63.73
2023-03-22T02:19:49.288Z,61.80
2023-03-22T02:22:59.524Z,63.03
2023-03-22T02:25:47.892Z,61.07
2023-03-22T02:28:25.279Z,58.90
2023-03-22T02:31:25.931Z,61.40
2023-03-22T02:34:27.894Z,59.83
2023-03-22T02:37:45.455Z,59.97
2023-03-22T02:40:18.331Z,63.70
2023-03-22T02:42:57.896Z,66.07
2023-03-22T02:45:35.220Z,66.73
2023-03-22T02:48:10.223Z,69.17
2023-03-22T02:50:42.962Z,74.55
2023-03-22T02:53:18.938Z,65.67
2023-03-22T02:55:54.613Z,80.10
2023-03-22T02:58:27.672Z,78.00
2023-03-22T03:01:00.977Z,75.27
2023-03-22T03:03:32.347Z,73.67
2023-03-22T03:06:04.304Z,75.30
2023-03-22T03:08:33.951Z,72.90
2023-03-22T03:11:04.073Z,71.30
2023-03-22T03:13:32.661Z,75.10
2023-03-22T03:16:04.081Z,73.43
2023-03-22T03:18:45.668Z,71.97
2023-03-22T03:21:30.358Z,69.13
2023-03-22T03:24:08.487Z,74.30
2023-03-22T03:26:47.032Z,68.93
2023-03-22T03:29:22.855Z,68.40
2023-03-22T03:31:56.386Z,68.60
2023-03-22T03:34:28.607Z,67.73
2023-03-22T03:37:00.109Z,70.73
2023-03-22T03:39:34.218Z,66.33
2023-03-22T03:42:06.394Z,68.23
2023-03-22T03:44:37.550Z,64.07
2023-03-22T03:47:08.159Z,68.50
2023-03-22T03:49:37.327Z,66.47
2023-03-22T03:52:07.254Z,68.83
2023-03-22T03:54:36.061Z,65.43
2023-03-22T03:57:05.996Z,66.67
2023-03-22T03:59:34.769Z,67.13
2023-03-22T04:02:03.458Z,65.17
2023-03-22T04:04:32.234Z,65.63
2023-03-22T04:07:02.887Z,69.60
2023-03-22T04:09:34.777Z,69.03
2023-03-22T04:12:03.636Z,62.23
2023-03-22T04:14:33.856Z,68.00
2023-03-22T04:17:02.365Z,62.60
2023-03-22T04:19:31.147Z,62.50
2023-03-22T04:22:00.517Z,62.60
2023-03-22T04:24:29.050Z,61.53
2023-03-22T04:26:57.675Z,66.77
2023-03-22T04:29:26.234Z,61.23
2023-03-22T04:31:56.220Z,57.90
2023-03-22T04:34:24.748Z,57.37
2023-03-22T04:36:53.480Z,57.43
2023-03-22T04:39:22.068Z,62.33
2023-03-22T04:41:51.151Z,58.60
2023-03-22T04:44:19.735Z,56.67
2023-03-22T04:46:48.316Z,56.57
2023-03-22T04:49:18.322Z,57.97
2023-03-22T04:51:46.981Z,55.63
2023-03-22T04:54:15.676Z,54.40
2023-03-22T04:56:44.235Z,57.63
2023-03-22T04:59:12.980Z,50.50
2023-03-22T05:01:42.783Z,53.53
2023-03-22T05:04:11.971Z,50.73
2023-03-22T05:06:42.033Z,53.97
2023-03-22T05:09:11.130Z,51.90
2023-03-22T05:11:40.852Z,56.33
2023-03-22T05:14:10.417Z,54.13
2023-03-22T05:16:40.869Z,51.00
2023-03-22T05:19:14.154Z,51.20
2023-03-22T05:21:45.329Z,49.60
2023-03-22T05:24:13.954Z,46.10
2023-03-22T05:26:44.745Z,49.97
2023-03-22T05:29:13.406Z,47.03
2023-03-22T05:31:41.996Z,50.27
2023-03-22T05:34:10.581Z,48.40
2023-03-22T05:36:39.143Z,40.90
2023-03-22T05:39:09.452Z,43.83
2023-03-22T05:41:37.978Z,44.97
2023-03-22T05:44:07.172Z,42.33
2023-03-22T05:46:35.797Z,48.50
2023-03-22T05:49:05.380Z,32.75
2023-03-22T05:51:42.477Z,35.03
2023-03-22T05:54:17.469Z,36.73
2023-03-22T05:56:55.601Z,30.90
2023-03-22T05:59:24.303Z,32.20
2023-03-22T06:01:53.035Z,31.97
2023-03-22T06:04:22.423Z,34.00
2023-03-22T06:06:51.603Z,34.40
2023-03-22T06:09:22.206Z,33.70
2023-03-22T06:11:50.804Z,31.20
2023-03-22T06:14:19.340Z,32.97
2023-03-22T06:16:47.992Z,32.10
2023-03-22T06:19:16.804Z,34.25
2023-03-22T06:21:45.532Z,31.37
2023-03-22T06:24:14.040Z,29.70
2023-03-22T06:26:44.037Z,31.43
2023-03-22T06:29:12.989Z,35.20
2023-03-22T06:31:41.680Z,30.70
2023-03-22T06:34:10.286Z,31.47
2023-03-22T06:36:38.817Z,28.90
2023-03-22T06:39:07.814Z,28.07
2023-03-22T06:41:36.596Z,29.83
2023-03-22T06:44:06.809Z,27.73
2023-03-22T06:46:35.437Z,28.13
2023-03-22T06:49:04.025Z,28.57
2023-03-22T06:51:32.848Z,29.20
2023-03-22T06:54:01.883Z,28.00
2023-03-22T06:56:30.496Z,28.13
2023-03-22T06:58:59.330Z,27.10
2023-03-22T07:01:29.379Z,27.57
2023-03-22T07:03:58.079Z,26.63
2023-03-22T07:06:27.340Z,25.17
2023-03-22T07:08:56.216Z,23.37
2023-03-22T07:11:26.114Z,22.40
2023-03-22T07:13:55.664Z,22.03
2023-03-22T07:16:24.359Z,21.67
2023-03-22T07:18:54.792Z,21.83
2023-03-22T07:21:23.543Z,19.97
2023-03-22T07:23:52.127Z,19.53
2023-03-22T07:26:20.809Z,20.27
2023-03-22T07:28:50.974Z,20.27
2023-03-22T07:31:19.716Z,18.07
2023-03-22T07:33:48.476Z,16.40
2023-03-22T07:36:23.907Z,16.77
2023-03-22T07:38:52.963Z,18.70
2023-03-22T07:41:24.219Z,16.47
2023-03-22T07:43:56.854Z,15.77
2023-03-22T07:46:29.043Z,16.57
2023-03-22T07:48:57.877Z,16.33
2023-03-22T07:51:30.171Z,17.77
2023-03-22T07:53:58.807Z,16.30
2023-03-22T07:56:27.454Z,18.40
2023-03-22T07:58:56.231Z,16.40
2023-03-22T08:01:24.849Z,16.67
2023-03-22T08:03:53.363Z,18.63
2023-03-22T08:06:22.266Z,16.30
2023-03-22T08:08:52.482Z,18.13
2023-03-22T08:11:21.002Z,16.13
2023-03-22T08:13:50.091Z,20.73
2023-03-22T08:16:18.741Z,17.67
2023-03-22T08:18:47.252Z,17.57
2023-03-22T08:21:16.059Z,17.70
2023-03-22T08:23:44.737Z,19.83
2023-03-22T08:26:14.966Z,17.17
2023-03-22T08:28:43.503Z,19.60
2023-03-22T08:31:15.024Z,17.57
2023-03-22T08:33:44.454Z,19.00
2023-03-22T08:36:15.796Z,18.10
2023-03-22T08:38:45.485Z,19.17
2023-03-22T08:41:16.261Z,17.83
2023-03-22T08:43:45.008Z,18.37
2023-03-22T08:46:13.913Z,17.83
2023-03-22T08:48:50.745Z,19.73
2023-03-22T08:51:19.894Z,18.53
2023-03-22T08:53:48.944Z,18.77
2023-03-22T08:56:20.262Z,17.30
2023-03-22T08:58:49.140Z,24.20
2023-03-22T09:01:21.215Z,19.30
2023-03-22T09:03:52.500Z,17.97
2023-03-22T09:06:21.165Z,18.83
2023-03-22T09:08:52.640Z,17.00
2023-03-22T09:11:23.406Z,19.57
2023-03-22T09:13:52.440Z,18.50
2023-03-22T09:16:21.112Z,17.73
2023-03-22T09:18:49.854Z,17.80
2023-03-22T09:21:18.567Z,21.27
2023-03-22T09:23:48.073Z,19.57
2023-03-22T09:26:16.880Z,18.67
2023-03-22T09:28:47.163Z,16.93
2023-03-22T09:31:18.006Z,14.03
2023-03-22T09:33:48.578Z,16.10
2023-03-22T09:36:17.340Z,18.57
2023-03-22T09:38:46.893Z,17.07
2023-03-22T09:41:20.236Z,18.87
2023-03-22T09:43:55.073Z,19.00
2023-03-22T09:46:30.600Z,18.50
2023-03-22T09:49:01.253Z,19.57
2023-03-22T09:51:38.984Z,21.57
2023-03-22T09:54:14.868Z,18.13
2023-03-22T09:56:45.870Z,18.77
2023-03-22T09:59:20.080Z,22.77
2023-03-22T10:01:57.329Z,22.80
2023-03-22T10:04:37.916Z,20.00
2023-03-22T10:07:12.383Z,21.73
2023-03-22T10:09:50.923Z,19.67
2023-03-22T10:12:26.852Z,21.45
2023-03-22T10:15:06.067Z,24.25
2023-03-22T10:17:38.143Z,38.17
2023-03-22T10:20:10.390Z,19.13
2023-03-22T10:22:44.823Z,18.90
2023-03-22T10:25:20.722Z,19.35
2023-03-22T10:27:54.154Z,20.57
2023-03-22T10:30:30.223Z,21.27
2023-03-22T10:33:03.518Z,21.83
2023-03-22T10:35:33.663Z,19.17
2023-03-22T10:38:06.570Z,19.87
2023-03-22T10:40:37.993Z,20.37
2023-03-22T10:43:22.444Z,22.80
2023-03-22T10:45:54.650Z,22.37
2023-03-22T10:48:33.165Z,22.03
2023-03-22T10:51:04.796Z,20.60
2023-03-22T10:53:40.092Z,20.20
2023-03-22T10:56:14.649Z,20.40
2023-03-22T10:58:43.625Z,20.77
2023-03-22T11:01:16.045Z,19.03
2023-03-22T11:03:50.451Z,18.10
2023-03-22T11:06:22.090Z,16.47
2023-03-22T11:08:52.389Z,17.93
2023-03-22T11:11:26.398Z,15.77
2023-03-22T11:14:03.110Z,23.40
2023-03-22T11:16:33.967Z,17.70
2023-03-22T11:19:04.252Z,16.93
2023-03-22T11:21:34.773Z,16.13
2023-03-22T11:24:07.409Z,14.32
2023-03-22T11:26:41.413Z,14.60
2023-03-22T11:29:19.976Z,13.50
2023-03-22T11:32:00.232Z,11.80
2023-03-22T11:34:31.062Z,13.32
2023-03-22T11:37:02.135Z,14.30
2023-03-22T11:39:31.845Z,12.63
2023-03-22T11:42:04.348Z,14.10
2023-03-22T11:44:38.420Z,13.30
2023-03-22T11:47:12.512Z,13.30
2023-03-22T11:49:46.048Z,15.37
2023-03-22T11:52:19.381Z,16.13
2023-03-22T11:54:49.321Z,15.33
2023-03-22T11:57:21.961Z,16.00
2023-03-22T11:59:58.253Z,16.47
2023-03-22T12:02:32.196Z,15.10
2023-03-22T12:05:07.812Z,16.73
2023-03-22T12:07:38.067Z,15.73
2023-03-22T12:10:16.148Z,14.70
2023-03-22T12:12:52.382Z,13.63
2023-03-22T12:15:25.381Z,11.83
2023-03-22T12:18:02.292Z,12.07
2023-03-22T12:20:42.665Z,13.15
2023-03-22T12:23:16.644Z,12.17
2023-03-22T12:25:51.051Z,11.80
2023-03-22T12:28:22.827Z,13.20
2023-03-22T12:30:54.700Z,13.52
2023-03-22T12:33:29.463Z,13.77
2023-03-22T12:36:00.387Z,13.87
2023-03-22T12:38:35.808Z,13.87
2023-03-22T12:41:07.466Z,14.17
2023-03-22T12:43:51.467Z,13.77
2023-03-22T12:46:22.503Z,13.93
2023-03-22T12:48:56.747Z,14.25
2023-03-22T12:51:25.900Z,14.13
2023-03-22T12:53:57.809Z,16.30
2023-03-22T12:56:30.572Z,14.15
2023-03-22T12:59:03.884Z,15.15
2023-03-22T13:01:39.308Z,14.95
2023-03-22T13:04:32.185Z,16.33
2023-03-22T13:07:12.963Z,16.30
2023-03-22T13:09:43.921Z,14.13
2023-03-22T13:12:34.397Z,14.18
2023-03-22T13:15:20.619Z,16.95
2023-03-22T13:17:54.150Z,20.50
2023-03-22T13:20:31.297Z,19.17
2023-03-22T13:23:27.590Z,26.02
2023-03-22T13:26:08.380Z,26.77
2023-03-22T13:28:38.855Z,23.10
2023-03-22T13:31:08.635Z,23.38
2023-03-22T13:33:39.003Z,16.65
2023-03-22T13:36:25.331Z,18.33
2023-03-22T13:38:58.520Z,71.63
2023-03-22T13:41:31.343Z,15.55
2023-03-22T13:44:02.051Z,16.27
2023-03-22T13:46:46.917Z,16.77
2023-03-22T13:49:45.920Z,18.48
2023-03-22T13:52:39.143Z,18.30
2023-03-22T13:55:33.237Z,18.05
2023-03-22T13:58:03.311Z,20.10
2023-03-22T14:00:56.936Z,16.88
2023-03-22T14:03:32.387Z,17.83
2023-03-22T14:06:15.304Z,17.05
2023-03-22T14:08:47.495Z,17.23
2023-03-22T14:11:24.359Z,16.00
2023-03-22T14:13:56.812Z,15.40
2023-03-22T14:16:36.412Z,16.23
2023-03-22T14:19:07.998Z,42.83
2023-03-22T14:21:40.273Z,13.52
